createdAt,value
2022-09-27T00:01:16.690Z,96494.38
2022-09-27T00:03:43.695Z,96483.53
2022-09-27T00:06:20.733Z,96481.81
2022-09-27T00:08:47.622Z,96486.34
2022-09-27T00:11:30.419Z,96474.50
2022-09-27T00:13:59.010Z,96474.97
2022-09-27T00:16:35.946Z,96474.44
2022-09-27T00:19:06.740Z,96473.66
2022-09-27T00:21:34.326Z,96447.28
2022-09-27T00:24:01.515Z,96451.41
2022-09-27T00:26:29.190Z,96462.38
2022-09-27T00:28:56.261Z,96454.47
2022-09-27T00:31:32.198Z,96459.28
2022-09-27T00:34:01.070Z,96461.91
2022-09-27T00:36:29.446Z,96452.94
2022-09-27T00:38:56.617Z,96447.00
2022-09-27T00:41:34.621Z,96450.28
2022-09-27T00:44:26.198Z,96454.00
2022-09-27T00:47:21.328Z,96481.09
2022-09-27T00:49:56.604Z,96451.06
2022-09-27T00:52:46.737Z,96450.00
2022-09-27T00:55:19.639Z,96450.56
2022-09-27T00:57:47.731Z,96462.16
2022-09-27T01:00:16.907Z,96463.38
2022-09-27T01:02:51.826Z,96451.09
2022-09-27T01:05:23.054Z,96442.16
2022-09-27T01:07:50.378Z,96453.00
2022-09-27T01:10:19.582Z,96463.56
2022-09-27T01:13:10.663Z,96486.19
2022-09-27T01:15:57.290Z,96460.44
2022-09-27T01:18:54.826Z,96455.09
2022-09-27T01:22:03.312Z,96407.31
2022-09-27T01:24:55.359Z,96407.28
2022-09-27T01:27:31.530Z,96420.47
2022-09-27T01:30:21.253Z,96405.69
2022-09-27T01:33:05.302Z,96417.50
2022-09-27T01:36:05.244Z,96431.34
2022-09-27T01:39:10.682Z,96424.84
2022-09-27T01:42:18.619Z,96416.09
2022-09-27T01:45:02.571Z,96413.38
2022-09-27T01:47:44.716Z,96422.84
2022-09-27T01:50:45.872Z,96421.47
2022-09-27T01:53:21.596Z,96421.63
2022-09-27T01:56:20.421Z,96431.84
2022-09-27T01:59:29.639Z,96422.34
2022-09-27T02:02:12.313Z,96435.25
2022-09-27T02:05:01.398Z,96431.94
2022-09-27T02:07:37.852Z,96428.22
2022-09-27T02:10:18.396Z,96433.00
2022-09-27T02:13:10.828Z,96437.47
2022-09-27T02:16:03.972Z,96432.69
2022-09-27T02:19:01.898Z,96422.59
2022-09-27T02:21:55.973Z,96430.47
2022-09-27T02:24:38.028Z,96424.47
2022-09-27T02:27:22.488Z,96429.00
2022-09-27T02:30:02.303Z,96432.84
2022-09-27T02:32:30.851Z,96429.59
2022-09-27T02:35:01.855Z,96440.13
2022-09-27T02:37:28.838Z,96443.81
2022-09-27T02:39:57.263Z,96438.09
2022-09-27T02:42:25.108Z,96449.41
2022-09-27T02:44:52.267Z,96461.88
2022-09-27T02:47:47.502Z,96485.34
2022-09-27T02:50:42.625Z,96508.56
2022-09-27T02:54:12.130Z,96489.66
2022-09-27T02:57:22.990Z,96498.84
2022-09-27T03:00:18.096Z,96487.63
2022-09-27T03:03:19.337Z,96480.69
2022-09-27T03:06:01.740Z,96482.66
2022-09-27T03:08:28.739Z,96488.78
2022-09-27T03:10:56.322Z,96491.13
2022-09-27T03:13:23.309Z,96485.72
2022-09-27T03:15:50.531Z,96494.91
2022-09-27T03:18:36.062Z,96491.16
2022-09-27T03:21:22.894Z,96506.09
2022-09-27T03:23:50.030Z,96504.88
2022-09-27T03:26:17.192Z,96503.44
2022-09-27T03:28:44.064Z,96509.75
2022-09-27T03:31:11.034Z,96520.66
2022-09-27T03:34:07.131Z,96525.13
2022-09-27T03:36:34.936Z,96521.78
2022-09-27T03:39:02.753Z,96515.34
2022-09-27T03:41:29.945Z,96514.34
2022-09-27T03:43:57.913Z,96520.13
2022-09-27T03:46:25.948Z,96525.63
2022-09-27T03:48:53.280Z,96514.56
2022-09-27T03:51:20.195Z,96514.44
2022-09-27T03:53:47.870Z,96515.44
2022-09-27T03:56:14.823Z,96526.44
2022-09-27T03:58:41.720Z,96535.44
2022-09-27T04:01:09.313Z,96520.84
2022-09-27T04:03:38.194Z,96525.25
2022-09-27T04:06:40.328Z,96516.94
2022-09-27T04:09:07.290Z,96534.41
2022-09-27T04:11:53.407Z,96528.84
2022-09-27T04:14:20.787Z,96526.72
2022-09-27T04:17:08.228Z,96535.59
2022-09-27T04:19:59.565Z,96539.00
2022-09-27T04:22:26.547Z,96543.88
2022-09-27T04:24:54.018Z,96543.38
2022-09-27T04:27:27.518Z,96557.19
2022-09-27T04:29:54.485Z,96537.03
2022-09-27T04:32:44.920Z,96547.63
2022-09-27T04:35:53.854Z,96555.72
2022-09-27T04:38:23.909Z,96549.03
2022-09-27T04:40:51.902Z,96554.03
2022-09-27T04:43:18.992Z,96558.31
2022-09-27T04:45:46.359Z,96555.22
2022-09-27T04:48:13.520Z,96540.50
2022-09-27T04:50:41.221Z,96554.91
2022-09-27T04:53:08.507Z,96556.28
2022-09-27T04:55:35.836Z,96563.19
2022-09-27T04:58:02.798Z,96539.63
2022-09-27T05:00:30.272Z,96563.03
2022-09-27T05:03:03.943Z,96557.97
2022-09-27T05:05:33.427Z,96568.91
2022-09-27T05:08:00.410Z,96569.66
2022-09-27T05:10:45.532Z,96563.91
2022-09-27T05:13:12.696Z,96570.41
2022-09-27T05:15:39.755Z,96571.66
2022-09-27T05:18:37.755Z,96578.38
2022-09-27T05:21:23.272Z,96593.13
2022-09-27T05:23:50.592Z,96599.69
2022-09-27T05:26:17.504Z,96599.34
2022-09-27T05:28:47.312Z,96610.53
2022-09-27T05:31:14.745Z,96625.41
2022-09-27T05:33:42.646Z,96612.94
2022-09-27T05:36:30.863Z,96633.44
2022-09-27T05:38:57.786Z,96626.28
2022-09-27T05:41:26.139Z,96626.34
2022-09-27T05:43:53.227Z,96623.47
2022-09-27T05:46:20.223Z,96640.88
2022-09-27T05:48:48.367Z,96641.19
2022-09-27T05:51:16.459Z,96633.13
2022-09-27T05:53:43.708Z,96637.34
2022-09-27T05:56:18.625Z,96641.50
2022-09-27T05:59:08.799Z,96638.72
2022-09-27T06:01:55.919Z,96662.75
2022-09-27T06:04:52.697Z,96652.22
2022-09-27T06:07:40.645Z,96650.63
2022-09-27T06:10:13.527Z,96665.97
2022-09-27T06:12:41.845Z,96676.25
2022-09-27T06:15:20.218Z,96664.97
2022-09-27T06:17:47.507Z,96662.53
2022-09-27T06:20:18.433Z,96674.66
2022-09-27T06:22:47.014Z,96670.97
2022-09-27T06:25:14.581Z,96679.84
2022-09-27T06:28:00.443Z,96670.00
2022-09-27T06:30:30.313Z,96674.34
2022-09-27T06:33:01.695Z,96675.81
2022-09-27T06:35:36.152Z,96677.69
2022-09-27T06:38:07.105Z,96689.50
2022-09-27T06:40:34.168Z,96692.72
2022-09-27T06:43:21.266Z,96702.63
2022-09-27T06:46:09.536Z,96695.47
2022-09-27T06:49:07.511Z,96701.13
2022-09-27T06:51:34.473Z,96705.84
2022-09-27T06:54:01.415Z,96698.34
2022-09-27T06:56:28.314Z,96706.84
2022-09-27T06:59:13.623Z,96706.41
2022-09-27T07:01:44.706Z,96725.38
2022-09-27T07:04:26.837Z,96717.47
2022-09-27T07:07:03.751Z,96725.44
2022-09-27T07:09:33.944Z,96732.63
2022-09-27T07:12:02.120Z,96727.59
2022-09-27T07:14:30.686Z,96742.41
2022-09-27T07:16:57.997Z,96732.53
2022-09-27T07:19:26.766Z,96738.25
2022-09-27T07:21:53.871Z,96740.66
2022-09-27T07:24:20.802Z,96749.44
2022-09-27T07:26:49.423Z,96744.22
2022-09-27T07:29:19.095Z,96755.97
2022-09-27T07:31:47.512Z,96753.47
2022-09-27T07:34:14.930Z,96758.31
2022-09-27T07:36:41.883Z,96770.22
2022-09-27T07:39:10.193Z,96775.25
2022-09-27T07:41:39.222Z,96761.44
2022-09-27T07:44:07.975Z,96757.84
2022-09-27T07:46:41.043Z,96767.09
2022-09-27T07:49:17.757Z,96779.66
2022-09-27T07:51:51.621Z,96771.53
2022-09-27T07:54:38.882Z,96786.22
2022-09-27T07:57:05.876Z,96782.19
2022-09-27T07:59:38.329Z,96798.53
2022-09-27T08:02:11.190Z,96787.03
2022-09-27T08:04:38.155Z,96793.97
2022-09-27T08:07:05.066Z,96793.84
2022-09-27T08:09:32.194Z,96803.78
2022-09-27T08:11:59.065Z,96818.63
2022-09-27T08:14:26.454Z,96802.22
2022-09-27T08:16:53.422Z,96808.94
2022-09-27T08:19:30.042Z,96817.69
2022-09-27T08:21:59.602Z,96795.44
2022-09-27T08:24:32.995Z,96795.38
2022-09-27T08:27:17.875Z,96801.13
2022-09-27T08:29:50.672Z,96802.06
2022-09-27T08:32:22.309Z,96797.91
2022-09-27T08:34:50.125Z,96796.44
2022-09-27T08:37:17.166Z,96815.81
2022-09-27T08:39:47.749Z,96815.56
2022-09-27T08:42:45.702Z,96816.69
2022-09-27T08:45:24.834Z,96819.44
2022-09-27T08:48:00.967Z,96835.00
2022-09-27T08:50:46.760Z,96828.25
2022-09-27T08:53:14.587Z,96823.75
2022-09-27T08:55:50.464Z,96835.47
2022-09-27T08:58:32.363Z,96845.38
2022-09-27T09:01:04.602Z,96832.56
2022-09-27T09:03:52.255Z,96854.13
2022-09-27T09:06:28.952Z,96844.91
2022-09-27T09:09:34.000Z,96849.78
2022-09-27T09:12:48.024Z,96832.69
2022-09-27T09:15:24.461Z,96845.34
2022-09-27T09:18:27.022Z,96837.63
2022-09-27T09:21:38.470Z,96838.03
2022-09-27T09:24:50.638Z,96849.78
2022-09-27T09:27:37.007Z,96843.53
2022-09-27T09:30:22.184Z,96849.69
2022-09-27T09:33:30.509Z,96830.91
2022-09-27T09:36:31.085Z,96840.53
2022-09-27T09:39:04.213Z,96837.47
2022-09-27T09:41:40.666Z,96832.09
2022-09-27T09:44:23.688Z,96835.41
2022-09-27T09:46:56.911Z,96846.66
2022-09-27T09:49:46.692Z,96851.50
2022-09-27T09:52:21.241Z,96831.91
2022-09-27T09:55:07.800Z,96819.91
2022-09-27T09:58:29.624Z,96833.44
2022-09-27T10:01:36.326Z,96815.91
2022-09-27T10:04:04.143Z,96820.25
2022-09-27T10:06:32.005Z,96823.53
2022-09-27T10:09:01.028Z,96813.88
2022-09-27T10:11:41.558Z,96802.56
2022-09-27T10:14:15.643Z,96801.78
2022-09-27T10:16:48.674Z,96803.97
2022-09-27T10:19:28.390Z,96801.78
2022-09-27T10:22:03.094Z,96801.09
2022-09-27T10:24:56.079Z,96807.09
2022-09-27T10:27:50.720Z,96812.78
2022-09-27T10:30:36.593Z,96815.88
2022-09-27T10:33:20.093Z,96815.47
2022-09-27T10:35:53.661Z,96804.69
2022-09-27T10:38:27.446Z,96804.56
2022-09-27T10:41:34.379Z,96801.56
2022-09-27T10:44:18.011Z,96800.25
2022-09-27T10:46:51.283Z,96788.56
2022-09-27T10:49:40.754Z,96806.44
2022-09-27T10:52:34.031Z,96797.09
2022-09-27T10:55:24.890Z,96797.44
2022-09-27T10:57:55.465Z,96791.06
2022-09-27T11:00:28.309Z,96790.81
2022-09-27T11:03:06.365Z,96783.69
2022-09-27T11:05:39.601Z,96776.03
2022-09-27T11:08:18.677Z,96790.84
2022-09-27T11:11:06.725Z,96792.53
2022-09-27T11:13:36.262Z,96790.34
2022-09-27T11:16:37.782Z,96796.13
2022-09-27T11:19:44.925Z,96797.09
2022-09-27T11:22:35.643Z,96792.53
2022-09-27T11:26:04.134Z,96807.56
2022-09-27T11:29:02.841Z,96790.97
2022-09-27T11:32:47.768Z,96786.75
2022-09-27T11:35:32.507Z,96768.25
2022-09-27T11:38:40.942Z,96774.06
2022-09-27T11:41:33.662Z,96766.88
2022-09-27T11:44:26.727Z,96757.25
2022-09-27T11:47:41.719Z,96793.06
2022-09-27T11:50:46.929Z,96785.91
2022-09-27T11:53:36.701Z,96767.69
2022-09-27T11:56:31.602Z,96746.56
2022-09-27T11:59:53.797Z,96764.13
2022-09-27T12:02:41.956Z,96768.81
2022-09-27T12:05:35.208Z,96785.34
2022-09-27T12:08:39.681Z,96819.91
2022-09-27T12:11:25.742Z,96889.06
2022-09-27T12:13:59.575Z,96879.88
2022-09-27T12:16:28.098Z,96874.13
2022-09-27T12:18:56.203Z,96868.88
2022-09-27T12:21:47.896Z,96825.19
2022-09-27T12:24:24.135Z,96821.94
2022-09-27T12:27:40.910Z,96810.56
2022-09-27T12:30:13.692Z,96810.44
2022-09-27T12:32:57.635Z,96799.50
2022-09-27T12:35:30.033Z,96805.56
2022-09-27T12:38:11.675Z,96799.50
2022-09-27T12:40:48.335Z,96799.34
2022-09-27T12:43:21.580Z,96784.22
2022-09-27T12:46:42.013Z,96785.00
2022-09-27T12:49:49.825Z,96787.94
2022-09-27T12:52:25.670Z,96791.91
2022-09-27T12:55:13.132Z,96779.66
2022-09-27T12:58:24.431Z,96791.00
2022-09-27T13:01:03.661Z,96791.47
2022-09-27T13:04:37.125Z,96784.59
2022-09-27T13:08:03.727Z,96769.59
2022-09-27T13:10:57.768Z,96759.41
2022-09-27T13:13:36.215Z,96774.31
2022-09-27T13:16:05.966Z,96782.22
2022-09-27T13:18:53.488Z,96777.63
2022-09-27T13:21:55.568Z,96768.69
2022-09-27T13:24:47.299Z,96759.50
2022-09-27T13:27:34.625Z,96766.59
2022-09-27T13:30:12.589Z,96754.06
2022-09-27T13:33:09.224Z,96763.44
2022-09-27T13:36:29.772Z,96765.84
2022-09-27T13:39:10.411Z,96773.91
2022-09-27T13:42:30.461Z,96750.28
2022-09-27T13:45:20.779Z,96762.59
2022-09-27T13:47:50.502Z,96763.84
2022-09-27T13:50:38.166Z,96766.38
2022-09-27T13:53:34.030Z,96769.88
2022-09-27T13:56:02.790Z,96762.38
2022-09-27T13:58:58.250Z,96759.06
2022-09-27T14:02:30.255Z,96741.78
2022-09-27T14:05:28.150Z,96757.09
2022-09-27T14:12:46.452Z,96744.41
2022-09-27T14:15:39.008Z,96749.00
2022-09-27T14:18:12.551Z,96741.75
2022-09-27T14:20:45.365Z,96743.91
2022-09-27T14:24:30.802Z,96731.91
2022-09-27T14:27:30.255Z,96734.41
2022-09-27T14:30:19.272Z,96723.91
2022-09-27T14:33:35.056Z,96725.03
2022-09-27T14:36:44.959Z,96734.41
2022-09-27T14:39:36.519Z,96738.03
2022-09-27T14:42:24.528Z,96751.94
2022-09-27T14:44:53.148Z,96740.69
2022-09-27T14:47:22.974Z,96738.00
2022-09-27T14:49:59.850Z,96726.06
2022-09-27T14:52:35.954Z,96733.13
2022-09-27T14:55:13.822Z,96747.41
2022-09-27T14:57:57.567Z,96743.91
2022-09-27T15:00:32.229Z,96743.78
2022-09-27T15:03:03.282Z,96733.81
2022-09-27T15:05:35.897Z,96740.72
2022-09-27T15:08:06.413Z,96736.97
2022-09-27T15:10:35.994Z,96731.09
2022-09-27T15:13:05.223Z,96730.06
2022-09-27T15:15:38.311Z,96725.88
2022-09-27T15:18:42.337Z,96720.44
2022-09-27T15:21:13.462Z,96718.84
2022-09-27T15:23:45.470Z,96722.53
2022-09-27T15:26:22.436Z,96730.59
2022-09-27T15:28:54.931Z,96736.19
2022-09-27T15:31:36.502Z,96731.94
2022-09-27T15:34:07.594Z,96745.75
2022-09-27T15:37:00.526Z,96746.22
2022-09-27T15:39:37.802Z,96755.09
2022-09-27T15:42:12.667Z,96755.69
2022-09-27T15:44:55.074Z,96752.41
2022-09-27T15:47:43.204Z,96743.88
2022-09-27T15:50:16.149Z,96750.47
2022-09-27T15:52:52.901Z,96756.34
2022-09-27T15:55:25.215Z,96745.09
2022-09-27T15:57:59.839Z,96733.50
2022-09-27T16:00:27.107Z,96740.38
2022-09-27T16:02:54.280Z,96735.88
2022-09-27T16:05:23.868Z,96739.81
2022-09-27T16:07:51.697Z,96753.00
2022-09-27T16:10:24.004Z,96739.69
2022-09-27T16:12:51.197Z,96742.63
2022-09-27T16:15:18.315Z,96759.72
2022-09-27T16:17:45.350Z,96765.38
2022-09-27T16:20:24.995Z,96763.53
2022-09-27T16:22:53.884Z,96765.66
2022-09-27T16:25:22.276Z,96764.75
2022-09-27T16:27:49.439Z,96767.72
2022-09-27T16:30:17.631Z,96763.72
2022-09-27T16:32:47.745Z,96757.81
2022-09-27T16:35:17.671Z,96761.56
2022-09-27T16:37:45.027Z,96767.72
2022-09-27T16:40:13.664Z,96777.84
2022-09-27T16:42:42.245Z,96765.66
2022-09-27T16:45:12.758Z,96761.97
2022-09-27T16:47:43.809Z,96761.56
2022-09-27T16:50:32.911Z,96762.69
2022-09-27T16:53:00.322Z,96763.91
2022-09-27T16:55:29.300Z,96765.75
2022-09-27T16:57:59.331Z,96782.63
2022-09-27T17:00:27.722Z,96758.19
2022-09-27T17:02:55.045Z,96763.94
2022-09-27T17:05:23.159Z,96756.06
2022-09-27T17:07:52.142Z,96770.91
2022-09-27T17:10:21.173Z,96765.41
2022-09-27T17:12:48.847Z,96760.59
2022-09-27T17:15:17.286Z,96768.34
2022-09-27T17:17:45.387Z,96771.94
2022-09-27T17:20:12.693Z,96767.28
2022-09-27T17:22:39.824Z,96772.09
2022-09-27T17:25:07.607Z,96772.13
2022-09-27T17:27:34.601Z,96771.31
2022-09-27T17:30:02.076Z,96775.81
2022-09-27T17:32:29.097Z,96784.31
2022-09-27T17:34:57.321Z,96765.31
2022-09-27T17:37:24.751Z,96774.41
2022-09-27T17:39:51.747Z,96777.28
2022-09-27T17:42:19.055Z,96788.09
2022-09-27T17:44:46.492Z,96783.84
2022-09-27T17:47:32.367Z,96770.22
2022-09-27T17:50:17.628Z,96765.47
2022-09-27T17:52:44.650Z,96769.31
2022-09-27T17:55:11.753Z,96760.06
2022-09-27T17:57:38.782Z,96779.34
2022-09-27T18:00:07.344Z,96780.25
2022-09-27T18:02:39.805Z,96790.16
2022-09-27T18:05:10.057Z,96776.22
2022-09-27T18:07:37.429Z,96783.81
2022-09-27T18:10:05.357Z,96787.44
2022-09-27T18:12:32.953Z,96790.47
2022-09-27T18:14:59.963Z,96795.50
2022-09-27T18:17:27.964Z,96789.16
2022-09-27T18:19:56.938Z,96784.63
2022-09-27T18:22:31.059Z,96798.69
2022-09-27T18:25:01.045Z,96795.31
2022-09-27T18:27:28.804Z,96791.34
2022-09-27T18:29:56.121Z,96808.78
2022-09-27T18:32:23.090Z,96802.78
2022-09-27T18:34:50.133Z,96808.53
2022-09-27T18:37:17.137Z,96796.03
2022-09-27T18:39:44.251Z,96811.25
2022-09-27T18:42:11.326Z,96811.84
2022-09-27T18:44:40.907Z,96802.16
2022-09-27T18:47:07.986Z,96830.41
2022-09-27T18:49:34.982Z,96820.84
2022-09-27T18:52:02.763Z,96822.72
2022-09-27T18:54:29.787Z,96826.63
2022-09-27T18:56:56.849Z,96822.66
2022-09-27T18:59:23.996Z,96828.53
2022-09-27T19:01:51.322Z,96823.63
2022-09-27T19:04:24.951Z,96825.16
2022-09-27T19:06:54.368Z,96823.78
2022-09-27T19:09:21.588Z,96829.06
2022-09-27T19:11:48.768Z,96821.47
2022-09-27T19:14:19.516Z,96836.38
2022-09-27T19:16:47.960Z,96834.22
2022-09-27T19:19:16.967Z,96824.06
2022-09-27T19:21:44.733Z,96827.53
2022-09-27T19:24:13.819Z,96844.13
2022-09-27T19:26:41.117Z,96827.47
2022-09-27T19:29:11.489Z,96833.47
2022-09-27T19:31:38.763Z,96841.81
2022-09-27T19:34:05.869Z,96840.03
2022-09-27T19:36:32.854Z,96840.88
2022-09-27T19:39:01.251Z,96847.81
2022-09-27T19:41:28.384Z,96853.22
2022-09-27T19:43:57.506Z,96848.84
2022-09-27T19:46:26.072Z,96855.59
2022-09-27T19:48:54.105Z,96836.03
2022-09-27T19:51:27.449Z,96843.72
2022-09-27T19:53:54.964Z,96848.94
2022-09-27T19:56:23.170Z,96850.31
2022-09-27T19:58:50.869Z,96841.19
2022-09-27T20:01:24.389Z,96821.38
2022-09-27T20:03:55.217Z,96821.22
2022-09-27T20:06:22.483Z,96833.28
2022-09-27T20:08:50.218Z,96828.22
2022-09-27T20:11:20.452Z,96822.53
2022-09-27T20:13:48.957Z,96826.91
2022-09-27T20:16:20.579Z,96820.75
2022-09-27T20:18:50.877Z,96823.94
2022-09-27T20:21:20.345Z,96797.38
2022-09-27T20:23:52.945Z,96806.16
2022-09-27T20:26:22.675Z,96813.31
2022-09-27T20:28:56.990Z,96808.94
2022-09-27T20:31:27.786Z,96800.63
2022-09-27T20:33:55.294Z,96813.22
2022-09-27T20:36:28.458Z,96812.41
2022-09-27T20:39:05.232Z,96817.16
2022-09-27T20:41:35.632Z,96807.88
2022-09-27T20:44:11.986Z,96813.09
2022-09-27T20:46:40.903Z,96804.34
2022-09-27T20:49:14.511Z,96827.22
2022-09-27T20:51:44.876Z,96814.00
2022-09-27T20:54:12.902Z,96810.69
2022-09-27T20:56:46.239Z,96806.97
2022-09-27T20:59:20.388Z,96801.34
2022-09-27T21:01:49.924Z,96793.53
2022-09-27T21:04:19.191Z,96795.34
2022-09-27T21:06:46.242Z,96782.84
2022-09-27T21:09:18.989Z,96791.03
2022-09-27T21:11:48.711Z,96788.31
2022-09-27T21:14:16.251Z,96799.63
2022-09-27T21:16:43.440Z,96780.50
2022-09-27T21:19:10.646Z,96792.81
2022-09-27T21:21:37.642Z,96799.50
2022-09-27T21:24:05.063Z,96803.84
2022-09-27T21:26:34.071Z,96809.41
2022-09-27T21:29:06.714Z,96794.75
2022-09-27T21:31:36.243Z,96792.72
2022-09-27T21:34:05.054Z,96794.94
2022-09-27T21:36:35.076Z,96789.88
2022-09-27T21:39:02.381Z,96783.94
2022-09-27T21:41:29.328Z,96792.34
2022-09-27T21:43:57.235Z,96776.59
2022-09-27T21:46:28.287Z,96773.22
2022-09-27T21:49:01.985Z,96771.84
2022-09-27T21:51:38.663Z,96780.28
2022-09-27T21:54:10.307Z,96764.28
2022-09-27T21:56:40.001Z,96779.44
2022-09-27T21:59:10.799Z,96769.13
2022-09-27T22:01:38.177Z,96773.41
2022-09-27T22:04:06.661Z,96764.72
2022-09-27T22:06:36.838Z,96757.88
2022-09-27T22:09:11.554Z,96757.41
2022-09-27T22:11:44.223Z,96757.78
2022-09-27T22:14:13.077Z,96754.13
2022-09-27T22:16:40.256Z,96753.59
2022-09-27T22:19:07.537Z,96744.75
2022-09-27T22:21:37.779Z,96735.03
2022-09-27T22:24:08.561Z,96744.63
2022-09-27T22:26:39.384Z,96743.59
2022-09-27T22:29:08.124Z,96736.53
2022-09-27T22:31:36.189Z,96730.13
2022-09-27T22:34:06.613Z,96717.63
2022-09-27T22:36:34.502Z,96710.63
2022-09-27T22:39:02.143Z,96724.91
2022-09-27T22:41:30.316Z,96725.28
2022-09-27T22:43:57.999Z,96723.19
2022-09-27T22:46:25.397Z,96732.59
2022-09-27T22:48:52.664Z,96724.47
2022-09-27T22:51:20.290Z,96703.19
2022-09-27T22:53:47.374Z,96712.78
2022-09-27T22:56:18.863Z,96673.63
2022-09-27T22:58:47.554Z,96678.28
2022-09-27T23:01:23.763Z,96674.38
2022-09-27T23:03:52.958Z,96663.97
2022-09-27T23:06:21.778Z,96661.97
2022-09-27T23:08:49.903Z,96663.13
2022-09-27T23:11:20.744Z,96668.34
2022-09-27T23:13:49.766Z,96663.03
2022-09-27T23:16:25.163Z,96657.38
2022-09-27T23:18:55.365Z,96649.25
2022-09-27T23:21:25.880Z,96638.66
2022-09-27T23:23:55.275Z,96636.25
2022-09-27T23:26:26.091Z,96639.69
2022-09-27T23:28:59.592Z,96630.88
2022-09-27T23:31:29.817Z,96634.44
2022-09-27T23:33:59.099Z,96624.88
2022-09-27T23:36:27.574Z,96614.75
2022-09-27T23:38:59.354Z,96608.31
2022-09-27T23:41:26.425Z,96604.00
2022-09-27T23:43:54.198Z,96608.75
2022-09-27T23:46:21.388Z,96604.69
2022-09-27T23:48:48.658Z,96599.25
2022-09-27T23:51:15.756Z,96595.41
2022-09-27T23:53:42.950Z,96583.84
2022-09-27T23:56:15.173Z,96596.16
2022-09-27T23:58:43.982Z,96582.78
